LIPX/VRN METAR and TAF weather

Enter ICAO airport designator
Station Type Date Time Source
LIPX METAR 2020/09/26 10:50 UTC NOAA

LIPX 261050Z 24006KT 200V280 9999 FEW040 19/05 Q0997


Station Type Date Time Source
LIPX Decoded METAR 2020/09/26 10:50 UTC NOAA

Verona / Villafranca, Italy (LIPX) 45-23N 010-52E 68M
Sep 26, 2020 - 06:50 AM EDT / 2020.09.26 1050 UTC
Wind: from the WSW (240 degrees) at 7 MPH (6 KT) (direction variable):0
Visibility: greater than 7 mile(s):0
Sky conditions: mostly clear
Temperature: 66 F (19 C)
Dew Point: 41 F (5 C)
Relative Humidity: 39%
Pressure (altimeter): 29.44 in. Hg (0997 hPa)
ob: LIPX 261050Z 24006KT 200V280 9999 FEW040 19/05 Q0997
cycle: 11

Station Type Date Time Source
LIPX TAF 2014/04/22 15:24 UTC NOAA

TAF LIPX 221400Z 2215/2324 VRB05KT 9999 SCT030 SCT070
TEMPO 2215/2218 SCT025CB SCT080 PROB30
TEMPO 2215/2218 TS

Example: see airport list